sensor_id;sensor_type;location;lat;lon;timestamp;pressure;altitude;pressure_sealevel;temperature;humidity
63281;BME280;49406;51.044;3.766;2023-11-21T00:00:30;101231.49;;;8.80;100.00
63281;BME280;49406;51.044;3.766;2023-11-21T00:03:05;101230.65;;;8.81;100.00
63281;BME280;49406;51.044;3.766;2023-11-21T00:05:40;101228.21;;;8.81;100.00
63281;BME280;49406;51.044;3.766;2023-11-21T00:08:14;101231.60;;;8.85;100.00
63281;BME280;49406;51.044;3.766;2023-11-21T00:10:49;101227.83;;;8.88;100.00
63281;BME280;49406;51.044;3.766;2023-11-21T00:13:24;101232.48;;;8.92;100.00
63281;BME280;49406;51.044;3.766;2023-11-21T00:15:58;101233.95;;;8.96;100.00
63281;BME280;49406;51.044;3.766;2023-11-21T00:18:33;101230.41;;;8.94;100.00
63281;BME280;49406;51.044;3.766;2023-11-21T00:21:08;101231.81;;;8.94;100.00
63281;BME280;49406;51.044;3.766;2023-11-21T00:23:42;101232.96;;;8.91;100.00
63281;BME280;49406;51.044;3.766;2023-11-21T00:26:17;101233.41;;;8.88;100.00
63281;BME280;49406;51.044;3.766;2023-11-21T00:28:51;101234.37;;;8.84;100.00
63281;BME280;49406;51.044;3.766;2023-11-21T00:31:26;101233.95;;;8.80;100.00
63281;BME280;49406;51.044;3.766;2023-11-21T00:34:01;101237.62;;;8.81;100.00
63281;BME280;49406;51.044;3.766;2023-11-21T00:36:36;101237.63;;;8.89;100.00
63281;BME280;49406;51.044;3.766;2023-11-21T00:39:10;101238.01;;;8.90;100.00
63281;BME280;49406;51.044;3.766;2023-11-21T00:41:45;101242.95;;;8.92;100.00
63281;BME280;49406;51.044;3.766;2023-11-21T00:44:20;101241.38;;;8.93;100.00
63281;BME280;49406;51.044;3.766;2023-11-21T00:46:54;101241.98;;;8.97;100.00
63281;BME280;49406;51.044;3.766;2023-11-21T00:49:29;101242.03;;;8.99;100.00
63281;BME280;49406;51.044;3.766;2023-11-21T00:52:04;101245.91;;;9.01;100.00
63281;BME280;49406;51.044;3.766;2023-11-21T00:54:39;101248.23;;;9.04;100.00
63281;BME280;49406;51.044;3.766;2023-11-21T00:57:13;101250.02;;;9.06;100.00
63281;BME280;49406;51.044;3.766;2023-11-21T00:59:48;101247.88;;;9.12;100.00
63281;BME280;49406;51.044;3.766;2023-11-21T01:02:23;101250.77;;;9.17;100.00
63281;BME280;49406;51.044;3.766;2023-11-21T01:04:58;101252.05;;;9.20;100.00
63281;BME280;49406;51.044;3.766;2023-11-21T01:07:33;101248.81;;;9.24;100.00
63281;BME280;49406;51.044;3.766;2023-11-21T01:10:08;101253.40;;;9.26;100.00
63281;BME280;49406;51.044;3.766;2023-11-21T01:12:43;101248.89;;;9.27;100.00
63281;BME280;49406;51.044;3.766;2023-11-21T01:15:16;101248.73;;;9.28;100.00
63281;BME280;49406;51.044;3.766;2023-11-21T01:17:50;101254.64;;;9.27;100.00
63281;BME280;49406;51.044;3.766;2023-11-21T01:20:25;101259.89;;;9.20;100.00
63281;BME280;49406;51.044;3.766;2023-11-21T01:23:00;101260.68;;;9.24;100.00
63281;BME280;49406;51.044;3.766;2023-11-21T01:25:34;101266.35;;;9.20;100.00
63281;BME280;49406;51.044;3.766;2023-11-21T01:28:09;101268.59;;;9.19;100.00
63281;BME280;49406;51.044;3.766;2023-11-21T01:30:43;101271.84;;;9.15;100.00
63281;BME280;49406;51.044;3.766;2023-11-21T01:33:19;101276.15;;;9.13;100.00
63281;BME280;49406;51.044;3.766;2023-11-21T01:35:53;101272.58;;;9.17;100.00
63281;BME280;49406;51.044;3.766;2023-11-21T01:38:28;101275.58;;;9.27;100.00
63281;BME280;49406;51.044;3.766;2023-11-21T01:41:03;101278.39;;;9.28;100.00
63281;BME280;49406;51.044;3.766;2023-11-21T01:43:38;101282.25;;;9.28;100.00
63281;BME280;49406;51.044;3.766;2023-11-21T01:46:12;101283.82;;;9.29;100.00
63281;BME280;49406;51.044;3.766;2023-11-21T01:48:49;101281.70;;;9.28;100.00
63281;BME280;49406;51.044;3.766;2023-11-21T01:51:24;101287.73;;;9.32;100.00
63281;BME280;49406;51.044;3.766;2023-11-21T01:53:59;101285.31;;;9.34;100.00
63281;BME280;49406;51.044;3.766;2023-11-21T01:56:34;101286.92;;;9.36;100.00
63281;BME280;49406;51.044;3.766;2023-11-21T01:59:09;101293.59;;;9.38;100.00
63281;BME280;49406;51.044;3.766;2023-11-21T02:01:44;101294.73;;;9.42;100.00
63281;BME280;49406;51.044;3.766;2023-11-21T02:04:20;101295.73;;;9.40;100.00
63281;BME280;49406;51.044;3.766;2023-11-21T02:06:55;101293.89;;;9.36;100.00
63281;BME280;49406;51.044;3.766;2023-11-21T02:09:30;101291.04;;;9.32;100.00
63281;BME280;49406;51.044;3.766;2023-11-21T02:12:05;101293.44;;;9.30;100.00
63281;BME280;49406;51.044;3.766;2023-11-21T02:14:42;101295.77;;;9.33;100.00
63281;BME280;49406;51.044;3.766;2023-11-21T02:17:16;101300.77;;;9.40;100.00
63281;BME280;49406;51.044;3.766;2023-11-21T02:19:51;101303.54;;;9.39;100.00
63281;BME280;49406;51.044;3.766;2023-11-21T02:22:27;101296.13;;;9.35;100.00
63281;BME280;49406;51.044;3.766;2023-11-21T02:25:06;101304.60;;;9.39;100.00
63281;BME280;49406;51.044;3.766;2023-11-21T02:27:41;101308.09;;;9.40;100.00
63281;BME280;49406;51.044;3.766;2023-11-21T02:30:16;101308.09;;;9.40;100.00
63281;BME280;49406;51.044;3.766;2023-11-21T02:32:52;101304.51;;;9.42;100.00
63281;BME280;49406;51.044;3.766;2023-11-21T02:35:27;101302.70;;;9.40;100.00
63281;BME280;49406;51.044;3.766;2023-11-21T02:38:04;101302.09;;;9.36;100.00
63281;BME280;49406;51.044;3.766;2023-11-21T02:40:39;101302.11;;;9.37;100.00
63281;BME280;49406;51.044;3.766;2023-11-21T02:43:14;101303.84;;;9.35;100.00
63281;BME280;49406;51.044;3.766;2023-11-21T02:45:48;101303.00;;;9.38;100.00
63281;BME280;49406;51.044;3.766;2023-11-21T02:48:23;101303.14;;;9.44;100.00
63281;BME280;49406;51.044;3.766;2023-11-21T02:50:59;101299.21;;;9.39;100.00
63281;BME280;49406;51.044;3.766;2023-11-21T02:53:33;101305.91;;;9.42;100.00
63281;BME280;49406;51.044;3.766;2023-11-21T02:56:09;101305.90;;;9.42;100.00
63281;BME280;49406;51.044;3.766;2023-11-21T02:58:45;101305.38;;;9.43;100.00
63281;BME280;49406;51.044;3.766;2023-11-21T03:01:20;101309.23;;;9.43;100.00
63281;BME280;49406;51.044;3.766;2023-11-21T03:03:54;101310.46;;;9.43;100.00
63281;BME280;49406;51.044;3.766;2023-11-21T03:06:29;101311.16;;;9.44;100.00
63281;BME280;49406;51.044;3.766;2023-11-21T03:09:04;101314.16;;;9.45;100.00
63281;BME280;49406;51.044;3.766;2023-11-21T03:11:40;101317.16;;;9.46;100.00
63281;BME280;49406;51.044;3.766;2023-11-21T03:14:14;101322.20;;;9.46;100.00
63281;BME280;49406;51.044;3.766;2023-11-21T03:16:49;101323.73;;;9.43;100.00
63281;BME280;49406;51.044;3.766;2023-11-21T03:19:24;101320.91;;;9.42;100.00
63281;BME280;49406;51.044;3.766;2023-11-21T03:21:58;101321.77;;;9.41;100.00
63281;BME280;49406;51.044;3.766;2023-11-21T03:24:33;101326.96;;;9.40;100.00
63281;BME280;49406;51.044;3.766;2023-11-21T03:27:07;101322.87;;;9.37;100.00
63281;BME280;49406;51.044;3.766;2023-11-21T03:29:42;101322.42;;;9.40;100.00
63281;BME280;49406;51.044;3.766;2023-11-21T03:32:18;101320.09;;;9.45;100.00
63281;BME280;49406;51.044;3.766;2023-11-21T03:34:56;101325.58;;;9.49;100.00
63281;BME280;49406;51.044;3.766;2023-11-21T03:37:31;101319.24;;;9.47;100.00
63281;BME280;49406;51.044;3.766;2023-11-21T03:40:08;101328.39;;;9.50;100.00
63281;BME280;49406;51.044;3.766;2023-11-21T03:42:42;101333.27;;;9.50;100.00
63281;BME280;49406;51.044;3.766;2023-11-21T03:45:17;101337.32;;;9.52;100.00
63281;BME280;49406;51.044;3.766;2023-11-21T03:47:52;101338.58;;;9.53;100.00
63281;BME280;49406;51.044;3.766;2023-11-21T03:50:26;101334.74;;;9.54;100.00
63281;BME280;49406;51.044;3.766;2023-11-21T03:53:01;101339.50;;;9.57;100.00
63281;BME280;49406;51.044;3.766;2023-11-21T03:55:36;101341.13;;;9.58;100.00
63281;BME280;49406;51.044;3.766;2023-11-21T03:58:11;101342.55;;;9.58;100.00
63281;BME280;49406;51.044;3.766;2023-11-21T04:00:47;101349.56;;;9.60;100.00
63281;BME280;49406;51.044;3.766;2023-11-21T04:03:20;101354.80;;;9.60;100.00
63281;BME280;49406;51.044;3.766;2023-11-21T04:05:55;101356.72;;;9.61;100.00
63281;BME280;49406;51.044;3.766;2023-11-21T04:08:30;101355.80;;;9.58;100.00
63281;BME280;49406;51.044;3.766;2023-11-21T04:11:07;101354.36;;;9.57;100.00
63281;BME280;49406;51.044;3.766;2023-11-21T04:13:42;101349.96;;;9.55;100.00
63281;BME280;49406;51.044;3.766;2023-11-21T04:16:16;101357.14;;;9.56;100.00
63281;BME280;49406;51.044;3.766;2023-11-21T04:18:51;101358.67;;;9.62;100.00
63281;BME280;49406;51.044;3.766;2023-11-21T04:21:26;101360.48;;;9.66;100.00
63281;BME280;49406;51.044;3.766;2023-11-21T04:24:00;101368.57;;;9.69;100.00
63281;BME280;49406;51.044;3.766;2023-11-21T04:26:35;101369.42;;;9.68;100.00
63281;BME280;49406;51.044;3.766;2023-11-21T04:29:09;101374.34;;;9.69;100.00
63281;BME280;49406;51.044;3.766;2023-11-21T04:31:44;101369.83;;;9.71;100.00
63281;BME280;49406;51.044;3.766;2023-11-21T04:34:19;101379.09;;;9.72;100.00
63281;BME280;49406;51.044;3.766;2023-11-21T04:36:54;101379.51;;;9.74;100.00
63281;BME280;49406;51.044;3.766;2023-11-21T04:39:28;101384.11;;;9.77;100.00
63281;BME280;49406;51.044;3.766;2023-11-21T04:42:03;101390.42;;;9.79;100.00
63281;BME280;49406;51.044;3.766;2023-11-21T04:44:38;101398.31;;;9.80;100.00
63281;BME280;49406;51.044;3.766;2023-11-21T04:47:14;101408.45;;;9.80;100.00
63281;BME280;49406;51.044;3.766;2023-11-21T04:49:49;101409.23;;;9.76;100.00
63281;BME280;49406;51.044;3.766;2023-11-21T04:52:23;101415.02;;;9.77;100.00
63281;BME280;49406;51.044;3.766;2023-11-21T04:54:58;101411.33;;;9.76;100.00
63281;BME280;49406;51.044;3.766;2023-11-21T04:57:34;101405.44;;;9.70;100.00
63281;BME280;49406;51.044;3.766;2023-11-21T05:00:10;101412.61;;;9.72;100.00
63281;BME280;49406;51.044;3.766;2023-11-21T05:02:45;101414.41;;;9.73;100.00
63281;BME280;49406;51.044;3.766;2023-11-21T05:05:20;101414.04;;;9.81;100.00
63281;BME280;49406;51.044;3.766;2023-11-21T05:07:56;101416.17;;;9.82;100.00
63281;BME280;49406;51.044;3.766;2023-11-21T05:10:30;101414.28;;;9.84;100.00
63281;BME280;49406;51.044;3.766;2023-11-21T05:13:05;101415.55;;;9.86;100.00
63281;BME280;49406;51.044;3.766;2023-11-21T05:15:41;101419.96;;;9.89;100.00
63281;BME280;49406;51.044;3.766;2023-11-21T05:18:16;101414.84;;;9.86;100.00
63281;BME280;49406;51.044;3.766;2023-11-21T05:20:50;101428.20;;;9.90;100.00
63281;BME280;49406;51.044;3.766;2023-11-21T05:23:25;101437.73;;;9.95;100.00
63281;BME280;49406;51.044;3.766;2023-11-21T05:25:59;101443.38;;;9.98;100.00
63281;BME280;49406;51.044;3.766;2023-11-21T05:28:34;101444.99;;;10.00;100.00
63281;BME280;49406;51.044;3.766;2023-11-21T05:31:10;101451.07;;;10.07;100.00
63281;BME280;49406;51.044;3.766;2023-11-21T05:33:44;101453.83;;;10.13;100.00
63281;BME280;49406;51.044;3.766;2023-11-21T05:36:19;101459.36;;;10.19;100.00
63281;BME280;49406;51.044;3.766;2023-11-21T05:38:54;101461.23;;;10.24;100.00
63281;BME280;49406;51.044;3.766;2023-11-21T05:41:28;101460.40;;;10.26;100.00
63281;BME280;49406;51.044;3.766;2023-11-21T05:44:03;101464.58;;;10.25;100.00
63281;BME280;49406;51.044;3.766;2023-11-21T05:46:38;101463.57;;;10.27;100.00
63281;BME280;49406;51.044;3.766;2023-11-21T05:49:13;101468.65;;;10.28;100.00
63281;BME280;49406;51.044;3.766;2023-11-21T05:51:48;101466.78;;;10.23;100.00
63281;BME280;49406;51.044;3.766;2023-11-21T05:54:23;101472.18;;;10.22;100.00
63281;BME280;49406;51.044;3.766;2023-11-21T05:56:58;101477.77;;;10.22;100.00
63281;BME280;49406;51.044;3.766;2023-11-21T05:59:32;101476.58;;;10.31;100.00
63281;BME280;49406;51.044;3.766;2023-11-21T06:02:07;101476.88;;;10.28;100.00
63281;BME280;49406;51.044;3.766;2023-11-21T06:04:42;101480.84;;;10.26;100.00
63281;BME280;49406;51.044;3.766;2023-11-21T06:07:17;101489.10;;;10.28;100.00
63281;BME280;49406;51.044;3.766;2023-11-21T06:09:52;101493.36;;;10.32;100.00
63281;BME280;49406;51.044;3.766;2023-11-21T06:12:27;101498.66;;;10.35;100.00
63281;BME280;49406;51.044;3.766;2023-11-21T06:15:01;101502.40;;;10.39;100.00
63281;BME280;49406;51.044;3.766;2023-11-21T06:17:38;101507.39;;;10.43;100.00
63281;BME280;49406;51.044;3.766;2023-11-21T06:20:13;101511.13;;;10.47;100.00
63281;BME280;49406;51.044;3.766;2023-11-21T06:22:49;101512.77;;;10.50;100.00
63281;BME280;49406;51.044;3.766;2023-11-21T06:25:24;101517.02;;;10.53;100.00
63281;BME280;49406;51.044;3.766;2023-11-21T06:27:59;101513.17;;;10.53;100.00
63281;BME280;49406;51.044;3.766;2023-11-21T06:30:33;101513.17;;;10.53;100.00
63281;BME280;49406;51.044;3.766;2023-11-21T06:33:08;101523.55;;;10.47;100.00
63281;BME280;49406;51.044;3.766;2023-11-21T06:35:42;101527.16;;;10.43;100.00
63281;BME280;49406;51.044;3.766;2023-11-21T06:38:17;101530.30;;;10.43;100.00
63281;BME280;49406;51.044;3.766;2023-11-21T06:40:52;101532.42;;;10.45;100.00
63281;BME280;49406;51.044;3.766;2023-11-21T06:43:27;101537.30;;;10.44;100.00
63281;BME280;49406;51.044;3.766;2023-11-21T06:46:05;101540.83;;;10.46;100.00
63281;BME280;49406;51.044;3.766;2023-11-21T06:48:39;101547.84;;;10.46;100.00
63281;BME280;49406;51.044;3.766;2023-11-21T06:51:14;101550.98;;;10.46;100.00
63281;BME280;49406;51.044;3.766;2023-11-21T06:53:48;101557.66;;;10.48;100.00
63281;BME280;49406;51.044;3.766;2023-11-21T06:56:23;101559.27;;;10.49;100.00
63281;BME280;49406;51.044;3.766;2023-11-21T06:58:58;101561.38;;;10.50;100.00
63281;BME280;49406;51.044;3.766;2023-11-21T07:01:33;101568.03;;;10.51;100.00
63281;BME280;49406;51.044;3.766;2023-11-21T07:04:12;101567.17;;;10.51;100.00
63281;BME280;49406;51.044;3.766;2023-11-21T07:06:46;101567.38;;;10.53;100.00
63281;BME280;49406;51.044;3.766;2023-11-21T07:09:21;101570.86;;;10.53;100.00
63281;BME280;49406;51.044;3.766;2023-11-21T07:11:56;101578.61;;;10.55;100.00
63281;BME280;49406;51.044;3.766;2023-11-21T07:14:30;101584.88;;;10.54;100.00
63281;BME280;49406;51.044;3.766;2023-11-21T07:17:05;101588.02;;;10.54;100.00
63281;BME280;49406;51.044;3.766;2023-11-21T07:19:40;101597.66;;;10.55;100.00
63281;BME280;49406;51.044;3.766;2023-11-21T07:22:15;101601.23;;;10.58;100.00
63281;BME280;49406;51.044;3.766;2023-11-21T07:24:54;101610.85;;;10.59;100.00
63281;BME280;49406;51.044;3.766;2023-11-21T07:27:29;101611.45;;;10.62;100.00
63281;BME280;49406;51.044;3.766;2023-11-21T07:30:08;101615.67;;;10.64;100.00
63281;BME280;49406;51.044;3.766;2023-11-21T07:32:43;101614.73;;;10.60;100.00
63281;BME280;49406;51.044;3.766;2023-11-21T07:35:18;101618.00;;;10.58;100.00
63281;BME280;49406;51.044;3.766;2023-11-21T07:37:52;101619.79;;;10.60;100.00
63281;BME280;49406;51.044;3.766;2023-11-21T07:40:27;101623.65;;;10.69;100.00
63281;BME280;49406;51.044;3.766;2023-11-21T07:43:02;101630.17;;;10.72;100.00
63281;BME280;49406;51.044;3.766;2023-11-21T07:45:36;101630.73;;;10.74;100.00
63281;BME280;49406;51.044;3.766;2023-11-21T07:48:11;101629.84;;;10.73;100.00
63281;BME280;49406;51.044;3.766;2023-11-21T07:50:45;101634.25;;;10.74;100.00
63281;BME280;49406;51.044;3.766;2023-11-21T07:53:21;101632.75;;;10.78;100.00
63281;BME280;49406;51.044;3.766;2023-11-21T07:55:56;101634.52;;;10.78;100.00
63281;BME280;49406;51.044;3.766;2023-11-21T07:58:30;101641.36;;;10.80;100.00
63281;BME280;49406;51.044;3.766;2023-11-21T08:01:06;101643.88;;;10.83;100.00
63281;BME280;49406;51.044;3.766;2023-11-21T08:03:41;101648.27;;;10.85;100.00
63281;BME280;49406;51.044;3.766;2023-11-21T08:06:17;101644.21;;;10.83;100.00
63281;BME280;49406;51.044;3.766;2023-11-21T08:08:52;101648.21;;;10.81;100.00
63281;BME280;49406;51.044;3.766;2023-11-21T08:11:26;101659.55;;;10.89;100.00
63281;BME280;49406;51.044;3.766;2023-11-21T08:14:02;101665.08;;;10.93;100.00
63281;BME280;49406;51.044;3.766;2023-11-21T08:16:38;101668.44;;;10.95;100.00
63281;BME280;49406;51.044;3.766;2023-11-21T08:19:12;101668.91;;;10.93;100.00
63281;BME280;49406;51.044;3.766;2023-11-21T08:21:47;101673.73;;;10.98;100.00
63281;BME280;49406;51.044;3.766;2023-11-21T08:24:22;101678.09;;;10.98;100.00
63281;BME280;49406;51.044;3.766;2023-11-21T08:26:56;101685.94;;;10.96;100.00
63281;BME280;49406;51.044;3.766;2023-11-21T08:29:31;101685.52;;;10.93;100.00
63281;BME280;49406;51.044;3.766;2023-11-21T08:32:07;101690.63;;;10.94;100.00
63281;BME280;49406;51.044;3.766;2023-11-21T08:34:41;101686.48;;;10.97;100.00
63281;BME280;49406;51.044;3.766;2023-11-21T08:37:18;101687.10;;;11.02;100.00
63281;BME280;49406;51.044;3.766;2023-11-21T08:39:52;101688.47;;;11.09;100.00
63281;BME280;49406;51.044;3.766;2023-11-21T08:42:27;101685.86;;;11.09;100.00
63281;BME280;49406;51.044;3.766;2023-11-21T08:45:03;101688.61;;;11.07;100.00
63281;BME280;49406;51.044;3.766;2023-11-21T08:47:42;101693.49;;;11.06;100.00
63281;BME280;49406;51.044;3.766;2023-11-21T08:50:17;101692.20;;;11.11;100.00
63281;BME280;49406;51.044;3.766;2023-11-21T08:52:52;101695.38;;;11.12;100.00
63281;BME280;49406;51.044;3.766;2023-11-21T08:55:27;101702.55;;;11.13;100.00
63281;BME280;49406;51.044;3.766;2023-11-21T08:58:01;101706.82;;;11.16;100.00
63281;BME280;49406;51.044;3.766;2023-11-21T09:00:38;101713.88;;;11.20;100.00
63281;BME280;49406;51.044;3.766;2023-11-21T09:03:14;101712.56;;;11.24;100.00
63281;BME280;49406;51.044;3.766;2023-11-21T09:05:48;101722.47;;;11.29;100.00
63281;BME280;49406;51.044;3.766;2023-11-21T09:08:23;101719.87;;;11.40;100.00
63281;BME280;49406;51.044;3.766;2023-11-21T09:10:57;101724.27;;;11.50;100.00
63281;BME280;49406;51.044;3.766;2023-11-21T09:13:32;101729.40;;;11.53;100.00
63281;BME280;49406;51.044;3.766;2023-11-21T09:16:08;101732.76;;;11.55;100.00
63281;BME280;49406;51.044;3.766;2023-11-21T09:18:44;101741.83;;;11.62;100.00
63281;BME280;49406;51.044;3.766;2023-11-21T09:21:19;101741.51;;;11.74;100.00
63281;BME280;49406;51.044;3.766;2023-11-21T09:23:54;101744.67;;;11.83;100.00
63281;BME280;49406;51.044;3.766;2023-11-21T09:26:28;101744.68;;;11.93;100.00
63281;BME280;49406;51.044;3.766;2023-11-21T09:29:03;101743.00;;;12.07;100.00
63281;BME280;49406;51.044;3.766;2023-11-21T09:31:38;101750.04;;;12.20;100.00
63281;BME280;49406;51.044;3.766;2023-11-21T09:34:13;101753.73;;;12.32;100.00
63281;BME280;49406;51.044;3.766;2023-11-21T09:36:48;101761.29;;;12.33;100.00
63281;BME280;49406;51.044;3.766;2023-11-21T09:39:23;101759.75;;;12.36;100.00
63281;BME280;49406;51.044;3.766;2023-11-21T09:42:03;101766.92;;;12.46;100.00
63281;BME280;49406;51.044;3.766;2023-11-21T09:44:45;101772.71;;;12.58;100.00
63281;BME280;49406;51.044;3.766;2023-11-21T09:47:21;101777.52;;;12.62;100.00
63281;BME280;49406;51.044;3.766;2023-11-21T09:49:58;101781.06;;;12.64;100.00
63281;BME280;49406;51.044;3.766;2023-11-21T09:52:42;101787.79;;;12.69;100.00
63281;BME280;49406;51.044;3.766;2023-11-21T09:55:22;101798.51;;;12.71;100.00
63281;BME280;49406;51.044;3.766;2023-11-21T09:58:01;101797.44;;;12.70;100.00
63281;BME280;49406;51.044;3.766;2023-11-21T10:00:37;101807.95;;;12.79;100.00
63281;BME280;49406;51.044;3.766;2023-11-21T10:03:14;101807.37;;;12.88;100.00
63281;BME280;49406;51.044;3.766;2023-11-21T10:05:51;101805.54;;;12.95;100.00
63281;BME280;49406;51.044;3.766;2023-11-21T10:08:28;101810.69;;;13.01;100.00
63281;BME280;49406;51.044;3.766;2023-11-21T10:11:07;101815.82;;;13.03;100.00
63281;BME280;49406;51.044;3.766;2023-11-21T10:13:45;101823.57;;;13.05;100.00
63281;BME280;49406;51.044;3.766;2023-11-21T10:16:20;101830.07;;;13.06;100.00
63281;BME280;49406;51.044;3.766;2023-11-21T10:18:59;101837.95;;;13.05;100.00
63281;BME280;49406;51.044;3.766;2023-11-21T10:21:33;101847.47;;;13.08;100.00
63281;BME280;49406;51.044;3.766;2023-11-21T10:24:09;101853.38;;;13.02;100.00
63281;BME280;49406;51.044;3.766;2023-11-21T10:26:44;101855.26;;;12.98;100.00
63281;BME280;49406;51.044;3.766;2023-11-21T10:29:22;101859.13;;;12.99;100.00
63281;BME280;49406;51.044;3.766;2023-11-21T10:31:56;101866.91;;;13.04;100.00
63281;BME280;49406;51.044;3.766;2023-11-21T10:34:32;101868.55;;;13.08;100.00
63281;BME280;49406;51.044;3.766;2023-11-21T10:37:13;101876.36;;;13.12;100.00
63281;BME280;49406;51.044;3.766;2023-11-21T10:39:49;101876.36;;;13.12;100.00
63281;BME280;49406;51.044;3.766;2023-11-21T10:42:23;101876.94;;;13.16;100.00
63281;BME280;49406;51.044;3.766;2023-11-21T10:44:58;101878.16;;;13.16;100.00
63281;BME280;49406;51.044;3.766;2023-11-21T10:47:34;101872.90;;;13.16;100.00
63281;BME280;49406;51.044;3.766;2023-11-21T10:50:10;101877.55;;;13.21;100.00
63281;BME280;49406;51.044;3.766;2023-11-21T10:52:46;101877.08;;;13.25;100.00
63281;BME280;49406;51.044;3.766;2023-11-21T10:55:21;101876.52;;;13.22;100.00
63281;BME280;49406;51.044;3.766;2023-11-21T10:58:00;101872.81;;;13.21;100.00
63281;BME280;49406;51.044;3.766;2023-11-21T11:00:35;101870.10;;;13.28;100.00
63281;BME280;49406;51.044;3.766;2023-11-21T11:03:10;101868.96;;;13.35;100.00
63281;BME280;49406;51.044;3.766;2023-11-21T11:05:48;101872.27;;;13.32;100.00
63281;BME280;49406;51.044;3.766;2023-11-21T11:08:26;101880.10;;;13.28;100.00
63281;BME280;49406;51.044;3.766;2023-11-21T11:11:00;101874.98;;;13.14;100.00
63281;BME280;49406;51.044;3.766;2023-11-21T11:13:35;101870.95;;;13.04;100.00
63281;BME280;49406;51.044;3.766;2023-11-21T11:16:12;101873.23;;;13.05;100.00
63281;BME280;49406;51.044;3.766;2023-11-21T11:18:50;101880.23;;;13.01;100.00
63281;BME280;49406;51.044;3.766;2023-11-21T11:21:33;101880.69;;;12.97;100.00
63281;BME280;49406;51.044;3.766;2023-11-21T11:24:27;101883.91;;;12.90;100.00
63281;BME280;49406;51.044;3.766;2023-11-21T11:27:15;101877.88;;;12.85;100.00
63281;BME280;49406;51.044;3.766;2023-11-21T11:30:03;101881.67;;;12.80;100.00
63281;BME280;49406;51.044;3.766;2023-11-21T11:32:51;101878.84;;;12.79;100.00
63281;BME280;49406;51.044;3.766;2023-11-21T11:35:38;101883.16;;;12.75;100.00
63281;BME280;49406;51.044;3.766;2023-11-21T11:38:14;101884.28;;;12.68;100.00
63281;BME280;49406;51.044;3.766;2023-11-21T11:40:52;101884.56;;;12.64;100.00
63281;BME280;49406;51.044;3.766;2023-11-21T11:43:30;101885.08;;;12.63;100.00
63281;BME280;49406;51.044;3.766;2023-11-21T11:46:06;101881.89;;;12.61;100.00
63281;BME280;49406;51.044;3.766;2023-11-21T11:48:41;101886.69;;;12.65;100.00
63281;BME280;49406;51.044;3.766;2023-11-21T11:51:18;101888.73;;;12.73;100.00
63281;BME280;49406;51.044;3.766;2023-11-21T11:53:54;101890.89;;;12.86;100.00
63281;BME280;49406;51.044;3.766;2023-11-21T11:56:31;101883.32;;;12.97;100.00
63281;BME280;49406;51.044;3.766;2023-11-21T11:59:07;101881.80;;;13.01;100.00
63281;BME280;49406;51.044;3.766;2023-11-21T12:01:46;101884.16;;;13.07;100.00
63281;BME280;49406;51.044;3.766;2023-11-21T12:04:28;101888.63;;;13.23;100.00
63281;BME280;49406;51.044;3.766;2023-11-21T12:07:07;101891.17;;;13.28;100.00
63281;BME280;49406;51.044;3.766;2023-11-21T12:09:42;101893.70;;;13.21;100.00
63281;BME280;49406;51.044;3.766;2023-11-21T12:12:17;101897.63;;;13.14;100.00
63281;BME280;49406;51.044;3.766;2023-11-21T12:14:52;101896.81;;;13.08;100.00
63281;BME280;49406;51.044;3.766;2023-11-21T12:17:27;101899.79;;;13.07;100.00
63281;BME280;49406;51.044;3.766;2023-11-21T12:20:05;101904.63;;;13.02;100.00
63281;BME280;49406;51.044;3.766;2023-11-21T12:22:48;101909.05;;;12.92;100.00
63281;BME280;49406;51.044;3.766;2023-11-21T12:25:24;101907.29;;;12.80;100.00
63281;BME280;49406;51.044;3.766;2023-11-21T12:28:02;101911.20;;;12.73;100.00
63281;BME280;49406;51.044;3.766;2023-11-21T12:30:35;101912.59;;;12.73;100.00
63281;BME280;49406;51.044;3.766;2023-11-21T12:33:11;101911.63;;;12.67;100.00
63281;BME280;49406;51.044;3.766;2023-11-21T12:35:50;101916.48;;;12.62;100.00
63281;BME280;49406;51.044;3.766;2023-11-21T12:38:26;101920.70;;;12.54;100.00
63281;BME280;49406;51.044;3.766;2023-11-21T12:41:08;101918.43;;;12.44;100.00
63281;BME280;49406;51.044;3.766;2023-11-21T12:43:43;101920.42;;;12.39;100.00
63281;BME280;49406;51.044;3.766;2023-11-21T12:46:18;101922.03;;;12.41;100.00
63281;BME280;49406;51.044;3.766;2023-11-21T12:48:53;101930.94;;;12.39;100.00
63281;BME280;49406;51.044;3.766;2023-11-21T12:51:29;101931.55;;;12.32;100.00
63281;BME280;49406;51.044;3.766;2023-11-21T12:54:05;101936.98;;;12.33;100.00
63281;BME280;49406;51.044;3.766;2023-11-21T12:56:41;101937.39;;;12.26;100.00
63281;BME280;49406;51.044;3.766;2023-11-21T12:59:15;101936.93;;;12.21;100.00
63281;BME280;49406;51.044;3.766;2023-11-21T13:01:51;101941.71;;;12.24;100.00
63281;BME280;49406;51.044;3.766;2023-11-21T13:04:33;101941.90;;;12.24;100.00
63281;BME280;49406;51.044;3.766;2023-11-21T13:07:08;101953.61;;;12.22;100.00
63281;BME280;49406;51.044;3.766;2023-11-21T13:09:48;101959.22;;;12.22;100.00
63281;BME280;49406;51.044;3.766;2023-11-21T13:12:27;101960.52;;;12.16;100.00
63281;BME280;49406;51.044;3.766;2023-11-21T13:15:07;101961.57;;;12.16;100.00
63281;BME280;49406;51.044;3.766;2023-11-21T13:17:41;101959.80;;;12.16;100.00
63281;BME280;49406;51.044;3.766;2023-11-21T13:20:18;101971.30;;;12.21;100.00
63281;BME280;49406;51.044;3.766;2023-11-21T13:22:55;101971.80;;;12.19;100.00
63281;BME280;49406;51.044;3.766;2023-11-21T13:25:32;101972.61;;;12.16;100.00